Time;durP1;ratioP1;P1;durP2;ratioP2;P2;SDS_P1;SDS_P2;PMS_P1;PMS_P2;Temp;Humidity;BMP_temperature;BMP_pressure;BME280_temperature;BME280_humidity;BME280_pressure;Samples;Min_cycle;Max_cycle;Signal;HPM_P1;HPM_P2
2021/09/07 00:01:54;;;;;;;8.70;6.78;;;17.70;99.90;;;;;;5092140;28;20260;-72
2021/09/07 00:04:28;;;;;;;10.88;8.15;;;17.70;99.90;;;;;;5091998;28;20235;-74
2021/09/07 00:06:55;;;;;;;9.55;7.28;;;17.60;99.90;;;;;;5092182;28;20197;-74
2021/09/07 00:09:22;;;;;;;8.27;7.38;;;17.60;99.90;;;;;;5092236;28;20202;-76
2021/09/07 00:11:50;;;;;;;8.95;7.63;;;17.70;99.90;;;;;;5091999;28;20198;-75
2021/09/07 00:14:17;;;;;;;9.00;7.00;;;17.70;99.90;;;;;;5091934;28;20703;-75
2021/09/07 00:16:44;;;;;;;8.57;7.30;;;17.70;99.90;;;;;;5092340;28;20293;-74
2021/09/07 00:19:11;;;;;;;9.45;6.95;;;17.60;99.90;;;;;;5092010;28;20664;-73
2021/09/07 00:21:38;;;;;;;10.35;8.23;;;17.70;99.90;;;;;;5092201;28;20237;-75
2021/09/07 00:24:05;;;;;;;11.00;8.25;;;17.70;99.90;;;;;;5092042;28;20411;-74
2021/09/07 00:26:32;;;;;;;9.82;7.82;;;17.70;99.90;;;;;;5091758;28;20198;-72
2021/09/07 00:29:00;;;;;;;10.43;7.50;;;17.60;99.90;;;;;;5092043;28;20205;-72
2021/09/07 00:31:27;;;;;;;10.57;7.30;;;17.60;99.90;;;;;;5091851;28;20206;-72
2021/09/07 00:33:54;;;;;;;9.25;7.20;;;17.60;99.90;;;;;;5092028;28;20204;-72
2021/09/07 00:36:21;;;;;;;10.50;7.75;;;17.60;99.90;;;;;;5091733;28;20202;-71
2021/09/07 00:38:48;;;;;;;11.30;8.07;;;17.50;99.90;;;;;;5092031;28;20571;-70
2021/09/07 00:41:15;;;;;;;8.82;7.18;;;17.40;99.90;;;;;;5091793;28;20300;-70
2021/09/07 00:43:42;;;;;;;9.88;7.45;;;17.40;99.90;;;;;;5091648;28;20719;-69
2021/09/07 00:46:10;;;;;;;10.63;7.35;;;17.30;99.90;;;;;;5091948;28;20875;-70
2021/09/07 00:48:37;;;;;;;10.23;8.13;;;17.20;99.90;;;;;;5091923;28;20299;-70
2021/09/07 00:51:04;;;;;;;11.23;8.13;;;17.10;99.90;;;;;;5091803;28;20799;-72
2021/09/07 00:53:31;;;;;;;12.48;8.23;;;17.00;99.90;;;;;;5091821;28;20208;-71
2021/09/07 00:55:59;;;;;;;10.35;7.85;;;17.00;99.90;;;;;;5091511;28;20226;-70
2021/09/07 00:58:31;;;;;;;9.95;7.90;;;17.10;99.90;;;;;;5091506;28;20598;-70
2021/09/07 01:00:58;;;;;;;12.65;8.70;;;17.10;99.90;;;;;;5095071;28;20322;-70
2021/09/07 01:03:26;;;;;;;12.50;8.18;;;17.00;99.90;;;;;;5095445;28;20212;-71
2021/09/07 01:05:53;;;;;;;9.00;7.15;;;17.00;99.90;;;;;;5095282;28;20783;-72
2021/09/07 01:08:22;;;;;;;13.27;8.77;;;17.00;99.90;;;;;;5095352;28;20209;-73
2021/09/07 01:10:48;;;;;;;9.65;7.75;;;17.10;99.90;;;;;;5095050;28;20206;-75
2021/09/07 01:13:15;;;;;;;11.07;8.13;;;17.10;99.90;;;;;;5095631;28;20615;-73
2021/09/07 01:15:43;;;;;;;10.63;7.78;;;17.10;99.90;;;;;;5094918;28;20312;-73
2021/09/07 01:18:09;;;;;;;9.23;7.90;;;17.10;99.90;;;;;;5095334;28;20296;-73
2021/09/07 01:20:38;;;;;;;11.02;7.90;;;17.10;99.90;;;;;;5095263;28;20205;-73
2021/09/07 01:23:04;;;;;;;8.65;7.47;;;17.00;99.90;;;;;;5094960;28;20198;-72
2021/09/07 01:25:33;;;;;;;8.75;7.30;;;17.00;99.90;;;;;;5094521;28;20317;-72
2021/09/07 01:27:59;;;;;;;8.68;7.25;;;17.00;99.90;;;;;;5095132;28;20293;-72
2021/09/07 01:30:29;;;;;;;9.88;7.97;;;17.00;99.90;;;;;;5094847;28;20205;-72
2021/09/07 01:32:56;;;;;;;9.52;7.15;;;17.00;99.90;;;;;;5094784;28;20198;-73
2021/09/07 01:35:23;;;;;;;12.30;8.80;;;16.90;99.90;;;;;;5094604;28;20222;-73
2021/09/07 01:37:50;;;;;;;13.27;8.57;;;16.80;99.90;;;;;;5094733;28;20204;-72
2021/09/07 01:40:16;;;;;;;9.95;7.85;;;16.80;99.90;;;;;;5094797;28;20386;-72
2021/09/07 01:42:45;;;;;;;12.23;8.70;;;16.80;99.90;;;;;;5094732;28;20206;-71
2021/09/07 01:45:12;;;;;;;11.60;8.48;;;16.80;99.90;;;;;;5094225;28;20752;-71
2021/09/07 01:47:40;;;;;;;9.68;7.93;;;16.90;99.90;;;;;;5095604;28;20216;-72
2021/09/07 01:50:08;;;;;;;10.52;7.75;;;16.90;99.90;;;;;;5096011;28;20216;-72
2021/09/07 01:52:35;;;;;;;11.00;7.95;;;16.90;99.90;;;;;;5095935;28;20213;-72
2021/09/07 01:55:02;;;;;;;11.10;8.45;;;16.80;99.90;;;;;;5095781;28;20263;-72
2021/09/07 01:57:29;;;;;;;11.80;8.15;;;16.90;99.90;;;;;;5096096;28;20231;-72
2021/09/07 01:59:57;;;;;;;11.70;8.30;;;16.80;99.90;;;;;;5095670;28;20656;-72
2021/09/07 02:02:24;;;;;;;10.07;7.90;;;16.80;99.90;;;;;;5095788;28;20244;-72
2021/09/07 02:04:51;;;;;;;11.30;8.57;;;16.70;99.90;;;;;;5095298;28;20313;-72
2021/09/07 02:07:18;;;;;;;10.35;8.30;;;16.80;99.90;;;;;;5095685;28;20217;-72
2021/09/07 02:09:45;;;;;;;11.50;8.15;;;16.80;99.90;;;;;;5095709;28;20212;-72
2021/09/07 02:12:12;;;;;;;8.90;7.82;;;16.70;99.90;;;;;;5095042;28;20202;-72
2021/09/07 02:14:39;;;;;;;9.35;7.82;;;16.70;99.90;;;;;;5095816;28;20571;-72
2021/09/07 02:17:07;;;;;;;10.35;8.13;;;16.70;99.90;;;;;;5095420;28;20600;-72
2021/09/07 02:19:34;;;;;;;10.40;8.18;;;16.60;99.90;;;;;;5095422;28;20296;-72
2021/09/07 02:22:01;;;;;;;10.82;8.27;;;16.60;99.90;;;;;;5095486;28;20619;-72
2021/09/07 02:24:28;;;;;;;10.27;9.10;;;16.60;99.90;;;;;;5095183;28;20232;-72
2021/09/07 02:26:55;;;;;;;12.18;8.93;;;16.60;99.90;;;;;;5095179;28;20210;-72
2021/09/07 02:29:22;;;;;;;10.55;8.10;;;16.60;99.90;;;;;;5095239;28;20311;-72
2021/09/07 02:31:49;;;;;;;11.00;8.60;;;16.60;99.90;;;;;;5095218;28;20236;-72
2021/09/07 02:34:17;;;;;;;11.45;8.30;;;16.60;99.90;;;;;;5095081;28;20218;-72
2021/09/07 02:36:44;;;;;;;10.43;8.35;;;16.50;99.90;;;;;;5095003;28;20237;-72
2021/09/07 02:39:12;;;;;;;12.25;9.10;;;16.50;99.90;;;;;;5095092;28;20307;-72
2021/09/07 02:41:39;;;;;;;14.00;10.52;;;16.50;99.90;;;;;;5095091;28;20216;-72
2021/09/07 02:44:06;;;;;;;14.68;9.82;;;16.50;99.90;;;;;;5094897;28;20234;-72
2021/09/07 02:46:32;;;;;;;9.52;7.82;;;16.50;99.90;;;;;;5094857;28;20206;-72
2021/09/07 02:48:59;;;;;;;11.10;8.88;;;16.50;99.90;;;;;;5094864;28;20699;-72
2021/09/07 02:51:28;;;;;;;12.82;9.55;;;16.50;99.90;;;;;;5094886;28;20212;-72
2021/09/07 02:53:55;;;;;;;11.15;8.38;;;16.40;99.90;;;;;;5094581;28;20216;-73
2021/09/07 02:56:22;;;;;;;13.40;8.73;;;16.40;99.90;;;;;;5094634;28;20623;-72
2021/09/07 02:58:49;;;;;;;11.93;8.90;;;16.40;99.90;;;;;;5094637;28;20556;-75
2021/09/07 03:01:15;;;;;;;11.38;9.18;;;16.40;99.90;;;;;;5094608;28;20295;-74
2021/09/07 03:03:42;;;;;;;11.35;8.70;;;16.40;99.90;;;;;;5094653;28;20201;-72
2021/09/07 03:06:09;;;;;;;10.25;8.70;;;16.30;99.90;;;;;;5094056;28;20755;-72
2021/09/07 03:08:37;;;;;;;12.20;9.38;;;16.30;99.90;;;;;;5094394;28;20296;-72
2021/09/07 03:11:04;;;;;;;11.40;8.27;;;16.30;99.90;;;;;;5094501;28;20207;-72
2021/09/07 03:13:31;;;;;;;13.05;9.52;;;16.30;99.90;;;;;;5094424;28;20230;-73
2021/09/07 03:15:58;;;;;;;10.63;8.52;;;16.20;99.90;;;;;;5093829;28;20308;-72
2021/09/07 03:18:25;;;;;;;10.43;8.80;;;16.20;99.90;;;;;;5094123;28;20296;-72
2021/09/07 03:20:52;;;;;;;11.30;8.70;;;16.20;99.90;;;;;;5094359;28;20571;-72
2021/09/07 03:23:19;;;;;;;11.60;8.75;;;16.20;99.90;;;;;;5093337;28;20304;-72
2021/09/07 03:25:47;;;;;;;13.35;10.00;;;16.20;99.90;;;;;;5093915;28;20587;-72
2021/09/07 03:28:14;;;;;;;12.68;8.77;;;16.10;99.90;;;;;;5094198;28;20234;-72
2021/09/07 03:30:41;;;;;;;13.38;9.38;;;16.10;99.90;;;;;;5094110;28;20205;-72
2021/09/07 03:33:08;;;;;;;12.68;9.55;;;16.10;99.90;;;;;;5094155;28;20202;-72
2021/09/07 03:35:41;;;;;;;13.52;9.15;;;16.10;99.90;;;;;;5093916;28;20578;-72
2021/09/07 03:38:08;;;;;;;10.55;8.75;;;16.10;99.90;;;;;;5094064;28;20240;-72
2021/09/07 03:40:34;;;;;;;9.60;8.60;;;16.10;99.90;;;;;;5093805;28;20212;-72
2021/09/07 03:43:03;;;;;;;11.10;8.95;;;16.10;99.90;;;;;;5093951;28;20301;-72
2021/09/07 03:45:29;;;;;;;9.52;7.65;;;16.10;99.90;;;;;;5093660;28;20324;-72
2021/09/07 03:47:56;;;;;;;12.02;8.63;;;16.00;99.90;;;;;;5093925;28;20301;-72
2021/09/07 03:50:23;;;;;;;11.10;8.18;;;15.90;99.90;;;;;;5093757;28;20291;-72
2021/09/07 03:52:50;;;;;;;12.20;8.80;;;15.90;99.90;;;;;;5093865;28;20295;-72
2021/09/07 03:55:17;;;;;;;12.88;9.38;;;16.00;99.90;;;;;;5093585;28;20256;-73
2021/09/07 03:57:44;;;;;;;11.57;8.50;;;16.00;99.90;;;;;;5093759;28;20292;-72
2021/09/07 04:00:13;;;;;;;12.95;9.00;;;16.00;99.90;;;;;;5093810;28;20211;-72
2021/09/07 04:02:40;;;;;;;11.30;8.32;;;16.00;99.90;;;;;;5093596;28;20749;-72
2021/09/07 04:05:08;;;;;;;11.95;9.13;;;15.90;99.90;;;;;;5093159;28;20228;-72
2021/09/07 04:07:35;;;;;;;10.85;8.70;;;15.90;99.90;;;;;;5093740;28;20635;-72
2021/09/07 04:10:02;;;;;;;11.35;8.32;;;15.80;99.90;;;;;;5093598;28;20240;-72
2021/09/07 04:12:29;;;;;;;12.90;9.10;;;15.80;99.90;;;;;;5094110;28;20204;-72
2021/09/07 04:14:56;;;;;;;12.13;8.75;;;15.80;99.90;;;;;;5093451;28;20645;-72
2021/09/07 04:17:24;;;;;;;11.35;8.60;;;15.90;99.90;;;;;;5093626;28;20236;-72
2021/09/07 04:19:51;;;;;;;10.48;8.80;;;16.00;99.90;;;;;;5093451;28;20296;-72
2021/09/07 04:22:17;;;;;;;11.68;8.50;;;16.00;99.90;;;;;;5093553;28;20208;-72
2021/09/07 04:24:44;;;;;;;11.30;9.15;;;16.10;99.90;;;;;;5093110;28;20256;-73
2021/09/07 04:27:11;;;;;;;11.25;8.35;;;16.00;99.90;;;;;;5093560;28;20342;-73
2021/09/07 04:29:38;;;;;;;10.25;8.00;;;16.00;99.90;;;;;;5093512;28;20236;-72
2021/09/07 04:32:06;;;;;;;11.07;8.50;;;16.10;99.90;;;;;;5093591;28;20236;-72
2021/09/07 04:34:34;;;;;;;11.30;8.73;;;16.00;99.90;;;;;;5094330;28;20225;-72
2021/09/07 04:37:01;;;;;;;11.38;9.00;;;16.00;99.90;;;;;;5097247;28;20202;-72
2021/09/07 04:39:27;;;;;;;11.35;8.70;;;16.10;99.90;;;;;;5097483;28;20312;-72
2021/09/07 04:41:54;;;;;;;11.25;8.63;;;16.00;99.90;;;;;;5097146;28;20212;-74
2021/09/07 04:44:23;;;;;;;11.18;8.75;;;16.10;99.90;;;;;;5097220;28;20386;-74
2021/09/07 04:46:50;;;;;;;13.77;9.50;;;16.00;99.90;;;;;;5097139;28;20213;-74
2021/09/07 04:49:16;;;;;;;12.27;8.45;;;16.00;99.90;;;;;;5097375;28;20240;-74
2021/09/07 04:51:45;;;;;;;13.20;8.90;;;15.90;99.90;;;;;;5097143;28;20292;-74
2021/09/07 04:54:11;;;;;;;13.23;9.20;;;16.00;99.90;;;;;;5097097;28;20320;-74
2021/09/07 04:56:38;;;;;;;13.15;10.18;;;15.90;99.90;;;;;;5096965;28;20207;-74
2021/09/07 04:59:05;;;;;;;16.40;9.70;;;15.90;99.90;;;;;;5097071;28;20208;-74
2021/09/07 05:01:32;;;;;;;12.15;8.95;;;15.90;99.90;;;;;;5096689;28;20745;-72
2021/09/07 05:03:59;;;;;;;15.30;9.70;;;15.90;99.90;;;;;;5096866;28;20295;-74
2021/09/07 05:06:25;;;;;;;14.45;9.90;;;15.90;99.90;;;;;;5096697;28;20356;-75
2021/09/07 05:08:54;;;;;;;13.70;10.10;;;15.70;99.90;;;;;;5096864;28;20212;-74
2021/09/07 05:11:20;;;;;;;11.70;8.43;;;15.60;99.90;;;;;;5096624;28;20213;-75
2021/09/07 05:13:47;;;;;;;12.55;9.60;;;15.70;99.90;;;;;;5096563;28;20215;-74
2021/09/07 05:16:14;;;;;;;11.25;8.23;;;15.70;99.90;;;;;;5096682;28;20282;-74
2021/09/07 05:18:41;;;;;;;12.88;9.15;;;15.70;99.90;;;;;;5096624;28;20239;-74
2021/09/07 05:21:08;;;;;;;14.05;10.25;;;15.80;99.90;;;;;;5096673;28;20245;-74
2021/09/07 05:23:34;;;;;;;15.55;9.77;;;15.60;99.90;;;;;;5096621;28;20210;-74
2021/09/07 05:26:03;;;;;;;11.73;8.90;;;15.50;99.90;;;;;;5096216;28;20263;-74
2021/09/07 05:28:29;;;;;;;14.93;9.65;;;15.40;99.90;;;;;;5096545;28;20287;-74
2021/09/07 05:30:57;;;;;;;13.40;9.73;;;15.40;99.90;;;;;;5096416;28;20659;-74
2021/09/07 05:33:24;;;;;;;14.68;10.63;;;15.30;99.90;;;;;;5096354;28;20296;-74
2021/09/07 05:35:51;;;;;;;13.10;10.63;;;15.30;99.90;;;;;;5096133;28;20218;-74
2021/09/07 05:38:18;;;;;;;14.55;9.50;;;15.40;99.90;;;;;;5096122;28;20723;-74
2021/09/07 05:40:45;;;;;;;10.38;8.82;;;15.40;99.90;;;;;;5096116;28;20614;-74
2021/09/07 05:43:14;;;;;;;10.75;9.07;;;15.50;99.90;;;;;;5096091;28;20659;-74
2021/09/07 05:45:41;;;;;;;13.60;9.43;;;15.70;99.90;;;;;;5094979;28;20265;-74
2021/09/07 05:48:09;;;;;;;11.25;8.90;;;15.80;99.90;;;;;;5095857;28;20624;-74
2021/09/07 05:50:36;;;;;;;11.90;10.10;;;15.80;99.90;;;;;;5096127;28;20207;-74
2021/09/07 05:53:02;;;;;;;13.73;9.55;;;15.70;99.90;;;;;;5096060;28;20240;-74
2021/09/07 05:55:29;;;;;;;11.95;8.85;;;15.80;99.90;;;;;;5095852;28;20231;-74
2021/09/07 05:57:56;;;;;;;14.32;10.48;;;15.80;99.90;;;;;;5095933;28;20293;-75
2021/09/07 06:00:24;;;;;;;12.10;8.88;;;15.70;99.90;;;;;;5095775;28;20673;-74
2021/09/07 06:02:55;;;;;;;15.10;9.77;;;15.70;99.90;;;;;;5095621;28;20212;-75
2021/09/07 06:05:21;;;;;;;13.43;9.98;;;15.60;99.90;;;;;;5095590;28;20229;-74
2021/09/07 06:07:48;;;;;;;16.15;10.00;;;15.60;99.90;;;;;;5095795;28;20609;-74
2021/09/07 06:10:15;;;;;;;12.13;9.77;;;15.60;99.90;;;;;;5095716;28;20295;-74
2021/09/07 06:12:42;;;;;;;12.55;9.60;;;15.60;99.90;;;;;;5095653;28;20211;-74
2021/09/07 06:15:09;;;;;;;14.05;10.13;;;15.60;99.90;;;;;;5095309;28;20226;-74
2021/09/07 06:17:38;;;;;;;13.57;9.80;;;15.60;99.90;;;;;;5095584;28;20205;-74
2021/09/07 06:20:06;;;;;;;13.93;10.00;;;15.70;99.90;;;;;;5095335;28;20742;-74
2021/09/07 06:22:33;;;;;;;15.90;10.98;;;15.70;99.90;;;;;;5095313;28;20205;-74
2021/09/07 06:24:59;;;;;;;12.60;10.25;;;15.80;99.90;;;;;;5094953;28;20315;-75
2021/09/07 06:27:26;;;;;;;12.00;9.57;;;15.80;99.90;;;;;;5095240;28;20295;-74
2021/09/07 06:29:53;;;;;;;14.77;11.70;;;15.90;99.90;;;;;;5095353;28;20563;-75
2021/09/07 06:32:20;;;;;;;12.70;9.75;;;15.90;99.90;;;;;;5095306;28;20295;-74
2021/09/07 06:34:48;;;;;;;14.93;10.50;;;15.90;99.90;;;;;;5094842;28;20762;-75
2021/09/07 06:37:15;;;;;;;13.20;10.25;;;16.00;99.90;;;;;;5095173;28;20202;-74
2021/09/07 06:39:42;;;;;;;15.45;11.00;;;16.10;99.90;;;;;;5095120;28;20233;-74
2021/09/07 06:42:09;;;;;;;14.27;10.82;;;16.10;99.90;;;;;;5094730;28;20305;-74
2021/09/07 06:44:36;;;;;;;14.70;10.07;;;16.10;99.90;;;;;;5095047;28;20229;-74
2021/09/07 06:47:04;;;;;;;14.77;9.93;;;16.20;99.90;;;;;;5094550;28;20243;-75
2021/09/07 06:49:31;;;;;;;14.75;10.85;;;16.10;99.90;;;;;;5094781;28;20234;-74
2021/09/07 06:51:59;;;;;;;16.77;10.88;;;16.10;99.90;;;;;;5095221;28;20236;-74
2021/09/07 06:54:26;;;;;;;14.98;10.25;;;16.10;99.90;;;;;;5094708;28;20302;-74
2021/09/07 06:56:52;;;;;;;13.45;11.15;;;16.20;99.90;;;;;;5094545;28;20209;-74
2021/09/07 06:59:19;;;;;;;13.77;10.45;;;16.20;99.90;;;;;;5094534;28;20296;-75
2021/09/07 07:01:46;;;;;;;16.33;11.23;;;16.20;99.90;;;;;;5085150;28;20236;-77
2021/09/07 07:04:13;;;;;;;16.15;10.05;;;16.10;99.90;;;;;;5088184;28;20339;-76
2021/09/07 07:06:40;;;;;;;15.57;10.45;;;16.10;99.90;;;;;;5093129;28;20217;-75
2021/09/07 07:09:08;;;;;;;14.23;10.30;;;16.20;99.90;;;;;;5093128;28;20292;-77
2021/09/07 07:11:35;;;;;;;14.43;11.00;;;16.20;99.90;;;;;;5093663;28;20216;-77
2021/09/07 07:14:02;;;;;;;16.08;10.70;;;16.40;99.90;;;;;;5096077;28;20288;-77
2021/09/07 07:16:28;;;;;;;14.90;9.98;;;16.60;99.90;;;;;;5096268;28;20259;-78
2021/09/07 07:18:55;;;;;;;17.33;10.50;;;16.70;99.90;;;;;;5097490;28;20245;-78
2021/09/07 07:21:22;;;;;;;13.95;10.90;;;16.80;99.90;;;;;;5098354;28;20585;-77
2021/09/07 07:23:49;;;;;;;14.70;10.23;;;16.90;99.90;;;;;;5093971;28;20211;-78
2021/09/07 07:26:18;;;;;;;13.25;10.35;;;17.00;99.90;;;;;;5092854;28;20301;-77
2021/09/07 07:28:44;;;;;;;12.88;9.30;;;17.00;99.90;;;;;;5093005;28;20292;-77
2021/09/07 07:31:11;;;;;;;13.35;9.88;;;17.00;99.90;;;;;;5093161;28;20212;-77
2021/09/07 07:33:38;;;;;;;11.98;9.30;;;17.00;99.90;;;;;;5093146;28;20205;-77
2021/09/07 07:36:05;;;;;;;12.35;9.35;;;17.10;99.90;;;;;;5093128;28;20662;-77
2021/09/07 07:38:32;;;;;;;13.30;9.07;;;17.20;99.90;;;;;;5092710;28;20288;-76
2021/09/07 07:41:01;;;;;;;15.05;8.85;;;17.40;99.90;;;;;;5093085;28;20300;-75
2021/09/07 07:43:29;;;;;;;11.43;8.85;;;17.60;99.90;;;;;;5092927;28;20206;-76
2021/09/07 07:45:56;;;;;;;11.55;9.40;;;17.60;99.90;;;;;;5092374;28;20557;-76
2021/09/07 07:48:23;;;;;;;13.50;10.00;;;17.60;99.90;;;;;;5093030;28;20234;-76
2021/09/07 07:50:50;;;;;;;13.68;9.48;;;17.70;99.90;;;;;;5092726;28;20707;-76
2021/09/07 07:53:17;;;;;;;11.77;9.02;;;17.80;99.90;;;;;;5093096;28;20210;-76
2021/09/07 07:55:44;;;;;;;12.15;9.68;;;17.80;99.90;;;;;;5092363;28;20663;-75
2021/09/07 07:58:10;;;;;;;14.60;9.73;;;17.90;99.90;;;;;;5092545;28;20293;-75
2021/09/07 08:00:39;;;;;;;15.98;11.60;;;17.80;99.90;;;;;;5093361;28;20293;-72
2021/09/07 08:03:05;;;;;;;12.32;9.90;;;17.80;99.90;;;;;;5094627;28;20212;-76
2021/09/07 08:05:32;;;;;;;12.35;9.80;;;17.80;99.90;;;;;;5094421;28;20719;-77
2021/09/07 08:07:59;;;;;;;13.07;9.48;;;17.80;99.90;;;;;;5095211;28;20660;-78
2021/09/07 08:10:26;;;;;;;11.65;9.20;;;18.00;99.90;;;;;;5093830;28;20202;-78
2021/09/07 08:12:53;;;;;;;10.73;8.77;;;18.20;99.90;;;;;;5093723;28;20288;-76
2021/09/07 08:15:19;;;;;;;11.70;10.05;;;18.20;99.90;;;;;;5093285;28;20712;-73
2021/09/07 08:17:49;;;;;;;12.68;9.02;;;18.30;99.90;;;;;;5093582;28;20293;-75
2021/09/07 08:20:16;;;;;;;12.18;10.20;;;18.40;99.90;;;;;;5093329;28;20263;-75
2021/09/07 08:22:43;;;;;;;13.20;10.35;;;18.40;99.90;;;;;;5093365;28;20292;-75
2021/09/07 08:25:12;;;;;;;12.48;10.50;;;18.40;99.90;;;;;;5093784;28;20649;-75
2021/09/07 08:27:39;;;;;;;19.35;9.80;;;18.40;99.90;;;;;;5093479;28;20248;-75
2021/09/07 08:30:07;;;;;;;12.13;10.05;;;18.40;99.90;;;;;;5093471;28;20656;-74
2021/09/07 08:32:33;;;;;;;13.05;10.40;;;18.40;99.90;;;;;;5093455;28;20209;-74
2021/09/07 08:35:01;;;;;;;12.85;10.15;;;18.40;99.90;;;;;;5092986;28;20734;-74
2021/09/07 08:37:28;;;;;;;13.63;9.88;;;18.50;99.90;;;;;;5093364;28;20293;-75
2021/09/07 08:39:55;;;;;;;12.25;9.60;;;18.50;99.90;;;;;;5093307;28;20207;-75
2021/09/07 08:42:22;;;;;;;13.27;9.50;;;18.60;99.90;;;;;;5093257;28;20216;-75
2021/09/07 08:44:49;;;;;;;11.60;9.27;;;18.70;99.90;;;;;;5093136;28;20249;-74
2021/09/07 08:47:17;;;;;;;10.68;8.60;;;18.90;99.90;;;;;;5093228;28;20833;-74
2021/09/07 08:49:44;;;;;;;14.52;10.18;;;19.10;99.90;;;;;;5093073;28;20743;-74
2021/09/07 08:52:14;;;;;;;13.18;9.85;;;19.10;99.90;;;;;;5093154;28;20293;-74
2021/09/07 08:54:41;;;;;;;12.95;9.25;;;19.10;99.90;;;;;;5093170;28;20226;-74
2021/09/07 08:57:08;;;;;;;13.47;9.90;;;19.20;99.90;;;;;;5093119;28;20237;-74
2021/09/07 08:59:36;;;;;;;11.47;8.70;;;19.30;99.90;;;;;;5093132;28;20937;-74
2021/09/07 09:02:12;;;;;;;11.57;9.50;;;19.40;99.90;;;;;;5093181;28;20484;-74
2021/09/07 09:04:39;;;;;;;12.37;9.00;;;19.50;99.90;;;;;;5092915;28;20467;-74
2021/09/07 09:07:06;;;;;;;10.97;8.57;;;19.60;99.90;;;;;;5092951;28;20480;-74
2021/09/07 09:09:38;;;;;;;13.00;9.87;;;19.90;99.90;;;;;;5093116;28;20441;-75
2021/09/07 09:12:07;;;;;;;12.03;10.07;;;20.00;99.90;;;;;;5093035;28;20868;-75
2021/09/07 09:14:36;;;;;;;10.17;9.03;;;20.20;99.90;;;;;;5093037;28;20469;-74
2021/09/07 09:17:25;;;;;;;11.57;9.63;;;20.40;99.90;;;;;;5092885;28;20435;-74
2021/09/07 09:19:55;;;;;;;13.47;10.20;;;20.50;99.90;;;;;;5093086;28;20592;-74
2021/09/07 09:22:39;;;;;;;10.80;8.70;;;20.70;99.90;;;;;;5095143;28;20446;-74
2021/09/07 09:25:27;;;;;;;11.40;9.47;;;20.70;99.90;;;;;;5096168;28;21056;-74
2021/09/07 09:28:22;;;;;;;12.70;10.00;;;20.80;99.90;;;;;;5096522;28;20578;-74
2021/09/07 09:30:52;;;;;;;11.63;8.77;;;20.80;99.90;;;;;;5094020;28;20462;-74
2021/09/07 09:33:20;;;;;;;10.30;8.30;;;20.90;99.90;;;;;;5096476;28;20439;-74
2021/09/07 09:35:54;;;;;;;12.33;9.30;;;21.00;99.90;;;;;;5096174;28;20824;-73
2021/09/07 09:38:22;;;;;;;10.30;8.40;;;21.20;99.90;;;;;;5096387;28;20526;-74
2021/09/07 09:41:02;;;;;;;12.63;8.97;;;21.40;99.90;;;;;;5096369;28;20487;-74
2021/09/07 09:43:37;;;;;;;10.83;9.27;;;21.50;99.90;;;;;;5096247;28;20440;-74
2021/09/07 09:46:24;;;;;;;11.50;8.73;;;21.80;99.90;;;;;;5095841;28;20547;-73
2021/09/07 09:48:53;;;;;;;10.90;8.70;;;22.30;99.90;;;;;;5096086;28;20444;-74
2021/09/07 09:51:23;;;;;;;9.00;7.80;;;23.10;99.90;;;;;;5096121;28;20612;-74
2021/09/07 09:53:51;;;;;;;9.33;7.87;;;24.10;99.90;;;;;;5096031;28;20451;-74
2021/09/07 09:56:19;;;;;;;10.57;8.00;;;25.10;98.00;;;;;;5095873;28;20857;-74
2021/09/07 09:58:46;;;;;;;8.80;7.33;;;26.10;95.40;;;;;;5095781;28;20511;-74
2021/09/07 10:01:17;;;;;;;8.90;7.50;;;27.00;92.70;;;;;;5095929;28;20863;-74
2021/09/07 10:03:45;;;;;;;9.03;7.33;;;28.10;90.30;;;;;;5095919;28;20453;-74
2021/09/07 10:06:12;;;;;;;8.53;7.63;;;28.90;81.90;;;;;;5095302;28;20460;-74
2021/09/07 10:08:41;;;;;;;8.63;7.73;;;28.80;76.90;;;;;;5095546;28;20903;-74
2021/09/07 10:11:12;;;;;;;8.40;7.23;;;28.80;76.80;;;;;;5095744;28;20779;-74
2021/09/07 10:13:43;;;;;;;9.47;6.60;;;28.90;71.40;;;;;;5095604;28;20532;-73
2021/09/07 10:16:12;;;;;;;8.73;7.40;;;28.60;70.80;;;;;;5095498;28;20470;-73
2021/09/07 10:18:49;;;;;;;7.37;6.67;;;28.50;69.00;;;;;;5095477;28;20539;-73
2021/09/07 10:24:51;;;;;;;6.90;6.20;;;29.30;66.00;;;;;;5095344;28;20493;-73
2021/09/07 10:27:18;;;;;;;7.93;6.90;;;29.60;65.50;;;;;;5095252;28;20989;-73
2021/09/07 10:29:46;;;;;;;7.77;6.97;;;30.00;61.60;;;;;;5095380;28;20527;-73
2021/09/07 10:32:28;;;;;;;7.63;6.87;;;30.10;62.10;;;;;;5094661;28;20523;-73
2021/09/07 10:35:08;;;;;;;7.70;6.10;;;29.70;62.40;;;;;;5095177;28;20529;-72
2021/09/07 10:38:09;;;;;;;6.13;5.53;;;29.40;62.50;;;;;;5095162;28;20438;-73
2021/09/07 10:40:44;;;;;;;6.20;5.60;;;29.40;59.80;;;;;;5090641;28;20454;-74
2021/09/07 10:43:11;;;;;;;7.07;6.40;;;29.70;58.40;;;;;;5095163;28;20503;-73
2021/09/07 10:45:40;;;;;;;7.50;6.07;;;29.40;56.40;;;;;;5094744;28;20456;-73
2021/09/07 10:48:34;;;;;;;7.03;6.37;;;29.30;56.10;;;;;;5094641;28;20482;-73
2021/09/07 10:51:04;;;;;;;6.50;5.90;;;29.00;57.80;;;;;;5058945;28;20484;-73
2021/09/07 10:53:31;;;;;;;7.37;6.60;;;28.60;58.80;;;;;;5094905;28;20442;-73
2021/09/07 10:56:23;;;;;;;7.60;6.80;;;28.30;62.80;;;;;;5094816;28;20466;-72
2021/09/07 10:58:50;;;;;;;7.60;5.90;;;27.60;64.80;;;;;;5094811;28;20442;-73
2021/09/07 11:01:28;;;;;;;7.90;6.80;;;27.50;63.00;;;;;;5094441;28;20442;-73
2021/09/07 11:04:32;;;;;;;7.90;7.10;;;27.50;63.50;;;;;;5094619;28;20519;-73
2021/09/07 11:07:00;;;;;;;6.80;6.10;;;27.80;62.60;;;;;;5094461;28;20830;-72
2021/09/07 11:09:51;;;;;;;7.23;6.00;;;28.30;64.80;;;;;;5094592;28;20476;-73
2021/09/07 11:12:29;;;;;;;6.23;5.63;;;29.00;61.50;;;;;;5094559;28;20444;-72
2021/09/07 11:15:04;;;;;;;8.43;7.50;;;29.80;63.80;;;;;;5094297;28;20973;-73
2021/09/07 11:17:32;;;;;;;8.60;7.50;;;30.20;60.10;;;;;;5095122;28;20764;-73
2021/09/07 11:20:00;;;;;;;7.63;6.80;;;30.20;60.20;;;;;;5094217;28;20443;-73
2021/09/07 11:22:28;;;;;;;6.80;6.03;;;30.80;59.70;;;;;;5094396;28;20440;-73
2021/09/07 11:25:06;;;;;;;7.00;6.30;;;31.30;57.40;;;;;;5094033;28;20460;-73
2021/09/07 11:27:50;;;;;;;6.80;6.20;;;31.80;57.00;;;;;;5094198;28;20508;-71
2021/09/07 11:30:22;;;;;;;5.73;5.23;;;32.10;56.50;;;;;;5094294;28;20444;-73
2021/09/07 11:32:55;;;;;;;6.90;6.20;;;31.80;53.90;;;;;;5094434;28;20443;-72
2021/09/07 11:35:22;;;;;;;7.17;6.23;;;31.60;52.60;;;;;;5093831;28;20483;-72
2021/09/07 11:37:49;;;;;;;7.13;6.43;;;31.20;54.60;;;;;;5094095;28;20531;-73
2021/09/07 11:40:17;;;;;;;6.40;5.80;;;30.80;55.60;;;;;;5093807;28;20864;-73
2021/09/07 11:42:45;;;;;;;6.43;5.80;;;30.80;58.60;;;;;;5094138;28;20440;-71
2021/09/07 11:45:18;;;;;;;6.60;5.90;;;30.80;54.50;;;;;;5092736;28;20496;-73
2021/09/07 11:47:45;;;;;;;6.77;5.80;;;30.50;55.30;;;;;;5093820;28;20977;-72
2021/09/07 11:50:18;;;;;;;6.20;5.60;;;30.20;54.60;;;;;;5093933;28;20542;-72
2021/09/07 11:52:49;;;;;;;6.60;5.47;;;29.50;56.70;;;;;;5094065;28;20448;-72
2021/09/07 11:55:45;;;;;;;6.43;5.83;;;29.20;59.40;;;;;;5093656;28;20471;-72
2021/09/07 11:58:25;;;;;;;7.40;5.97;;;28.80;58.90;;;;;;5093745;28;20442;-72
2021/09/07 12:01:09;;;;;;;6.50;5.90;;;28.30;57.90;;;;;;5093756;28;20539;-72
2021/09/07 12:03:39;;;;;;;6.50;5.53;;;27.90;59.10;;;;;;5093897;28;20487;-72
2021/09/07 12:06:08;;;;;;;7.13;6.00;;;27.60;61.90;;;;;;5093521;28;20464;-72
2021/09/07 12:08:37;;;;;;;6.77;6.07;;;27.30;59.90;;;;;;5093585;28;20486;-72
2021/09/07 12:11:05;;;;;;;7.93;6.07;;;27.20;61.70;;;;;;5093723;28;20447;-72
2021/09/07 12:13:32;;;;;;;6.80;6.10;;;27.00;62.60;;;;;;5093585;28;20448;-72
2021/09/07 12:16:00;;;;;;;7.17;6.47;;;26.90;69.10;;;;;;5093418;28;20468;-72
2021/09/07 12:18:35;;;;;;;12.83;9.57;;;26.80;62.30;;;;;;5093503;28;21001;-72
2021/09/07 12:21:22;;;;;;;11.17;9.43;;;26.90;62.70;;;;;;5093667;28;20446;-72
2021/09/07 12:23:50;;;;;;;6.97;6.27;;;27.00;65.20;;;;;;5093530;28;20440;-72
2021/09/07 12:26:18;;;;;;;6.50;5.77;;;27.10;67.80;;;;;;5093147;28;20440;-72
2021/09/07 12:28:45;;;;;;;7.10;5.80;;;27.00;64.40;;;;;;5093490;28;20480;-72
2021/09/07 12:31:15;;;;;;;6.37;5.77;;;27.10;63.30;;;;;;5093381;28;20451;-72
2021/09/07 12:33:44;;;;;;;7.10;5.80;;;27.10;62.60;;;;;;5093395;28;20933;-71
2021/09/07 12:36:13;;;;;;;6.13;5.57;;;27.10;62.50;;;;;;5092971;28;21037;-72
2021/09/07 12:38:40;;;;;;;7.10;6.10;;;27.20;65.90;;;;;;5093170;28;21014;-72
2021/09/07 12:41:09;;;;;;;7.00;5.80;;;27.10;63.10;;;;;;5093244;28;20949;-72
2021/09/07 12:43:41;;;;;;;7.50;6.30;;;27.10;61.00;;;;;;5093423;28;20582;-71
2021/09/07 12:46:09;;;;;;;7.00;5.53;;;26.90;63.60;;;;;;5093268;28;20464;-72
2021/09/07 12:48:38;;;;;;;7.77;5.90;;;27.00;65.50;;;;;;5093218;28;20563;-72
2021/09/07 12:51:06;;;;;;;6.47;5.77;;;27.00;64.30;;;;;;5093342;28;20535;-71